Time;durP1;ratioP1;P1;durP2;ratioP2;P2;SDS_P1;SDS_P2;PMS_P1;PMS_P2;Temp;Humidity;BMP_temperature;BMP_pressure;BME280_temperature;BME280_humidity;BME280_pressure;Samples;Min_cycle;Max_cycle;Signal;HPM_P1;HPM_P2
2023/08/29 00:01:33;;;;;;;2.27;2.07;;;;;;;;;;4897136;29;21285;-85
2023/08/29 00:03:59;;;;;;;2.03;1.33;;;;;;;;;;4889315;29;20480;-88
2023/08/29 00:06:25;;;;;;;3.43;1.17;;;;;;;;;;4907405;28;20440;-87
2023/08/29 00:08:51;;;;;;;3.30;1.60;;;;;;;;;;4927569;29;20446;-87
2023/08/29 00:11:17;;;;;;;2.63;1.50;;;;;;;;;;4927698;29;20442;-87
2023/08/29 00:13:45;;;;;;;3.60;1.90;;;;;;;;;;4929678;29;20461;-86
2023/08/29 00:16:16;;;;;;;2.00;1.53;;;;;;;;;;4950165;29;20505;-87
2023/08/29 00:18:57;;;;;;;1.47;1.37;;;;;;;;;;4948082;29;20932;-86
2023/08/29 00:21:26;;;;;;;2.60;1.53;;;;;;;;;;4944236;29;20443;-87
2023/08/29 00:23:52;;;;;;;1.70;1.50;;;;;;;;;;4945006;29;20653;-86
2023/08/29 00:26:21;;;;;;;3.07;2.77;;;;;;;;;;4927250;29;20435;-86
2023/08/29 00:28:49;;;;;;;1.43;1.03;;;;;;;;;;4929203;28;20485;-88
2023/08/29 00:31:28;;;;;;;2.17;1.90;;;;;;;;;;4932942;28;20508;-87
2023/08/29 00:33:54;;;;;;;1.20;1.10;;;;;;;;;;4959697;28;20438;-86
2023/08/29 00:36:20;;;;;;;5.67;1.90;;;;;;;;;;4928370;29;20414;-87
2023/08/29 00:38:46;;;;;;;2.17;1.97;;;;;;;;;;4928085;29;20451;-88
2023/08/29 00:41:17;;;;;;;2.10;1.90;;;;;;;;;;4932092;29;20941;-86
2023/08/29 00:43:43;;;;;;;2.23;1.70;;;;;;;;;;4948342;29;20474;-86
2023/08/29 00:46:16;;;;;;;2.80;1.80;;;;;;;;;;4934977;29;20474;-86
2023/08/29 00:48:42;;;;;;;1.70;1.60;;;;;;;;;;4947612;29;20973;-87
2023/08/29 00:51:08;;;;;;;2.33;2.13;;;;;;;;;;4930132;29;20791;-86
2023/08/29 00:53:41;;;;;;;2.57;2.37;;;;;;;;;;4939518;29;20438;-85
2023/08/29 00:56:08;;;;;;;3.97;2.13;;;;;;;;;;4946218;29;20446;-87
2023/08/29 00:58:34;;;;;;;2.37;1.27;;;;;;;;;;4932093;29;20440;-88
2023/08/29 01:01:00;;;;;;;2.03;1.80;;;;;;;;;;4928398;29;20431;-89
2023/08/29 01:03:26;;;;;;;1.37;1.27;;;;;;;;;;4924503;29;20459;-88
2023/08/29 01:06:04;;;;;;;2.10;1.90;;;;;;;;;;4928773;29;20805;-88
2023/08/29 01:08:30;;;;;;;2.20;2.00;;;;;;;;;;4931200;29;20455;-87
2023/08/29 01:11:00;;;;;;;1.50;1.40;;;;;;;;;;4935982;29;20431;-87
2023/08/29 01:13:50;;;;;;;2.03;1.50;;;;;;;;;;4949644;29;20530;-87
2023/08/29 01:16:16;;;;;;;2.00;1.90;;;;;;;;;;4944901;29;20457;-86
2023/08/29 01:18:42;;;;;;;8.00;2.70;;;;;;;;;;4950182;29;20438;-86
2023/08/29 01:21:24;;;;;;;1.90;1.70;;;;;;;;;;4937005;29;20436;-86
2023/08/29 01:23:51;;;;;;;2.80;2.13;;;;;;;;;;4938944;29;20482;-86
2023/08/29 01:26:20;;;;;;;2.50;2.30;;;;;;;;;;4927393;29;20463;-86
2023/08/29 01:28:47;;;;;;;3.40;2.60;;;;;;;;;;4929936;29;20784;-87
2023/08/29 01:31:13;;;;;;;1.77;1.67;;;;;;;;;;4928749;29;20836;-86
2023/08/29 01:33:40;;;;;;;1.67;1.57;;;;;;;;;;4932396;28;20971;-87
2023/08/29 01:36:09;;;;;;;2.27;1.97;;;;;;;;;;4921569;29;20453;-86
2023/08/29 01:38:35;;;;;;;2.10;1.90;;;;;;;;;;4935903;29;20977;-89
2023/08/29 01:41:01;;;;;;;2.20;2.00;;;;;;;;;;4929468;29;20431;-88
2023/08/29 01:43:27;;;;;;;1.60;1.50;;;;;;;;;;4929253;29;20519;-87
2023/08/29 01:45:53;;;;;;;2.17;1.63;;;;;;;;;;4915448;29;20448;-87
2023/08/29 01:48:19;;;;;;;1.97;1.60;;;;;;;;;;4942832;29;20604;-87
2023/08/29 01:50:45;;;;;;;2.47;1.67;;;;;;;;;;4921071;29;20482;-86
2023/08/29 01:53:11;;;;;;;2.33;2.13;;;;;;;;;;4929477;29;20426;-88
2023/08/29 01:55:37;;;;;;;3.53;2.10;;;;;;;;;;4924960;29;20493;-87
2023/08/29 01:58:04;;;;;;;2.30;2.10;;;;;;;;;;4931227;29;20430;-87
2023/08/29 02:00:30;;;;;;;4.37;2.07;;;;;;;;;;4925003;29;20545;-85
2023/08/29 02:02:56;;;;;;;2.27;2.07;;;;;;;;;;4920994;29;20508;-88
2023/08/29 02:05:22;;;;;;;2.30;1.90;;;;;;;;;;4921199;29;20902;-86
2023/08/29 02:07:49;;;;;;;3.80;2.30;;;;;;;;;;4919174;29;20447;-88
2023/08/29 02:10:15;;;;;;;6.77;2.30;;;;;;;;;;4923557;29;20500;-87
2023/08/29 02:12:41;;;;;;;2.70;2.07;;;;;;;;;;4928505;29;20442;-86
2023/08/29 02:15:08;;;;;;;2.13;1.63;;;;;;;;;;4917643;29;20950;-87
2023/08/29 02:17:36;;;;;;;3.10;1.87;;;;;;;;;;4938801;29;20842;-89
2023/08/29 02:20:02;;;;;;;2.07;1.77;;;;;;;;;;4927868;29;20434;-88
2023/08/29 02:22:30;;;;;;;2.60;2.40;;;;;;;;;;4930990;29;20557;-87
2023/08/29 02:24:56;;;;;;;1.97;1.77;;;;;;;;;;4938043;29;20945;-88
2023/08/29 02:27:22;;;;;;;2.23;2.13;;;;;;;;;;4950825;29;20461;-87
2023/08/29 02:29:48;;;;;;;2.30;1.90;;;;;;;;;;4927609;29;20422;-87
2023/08/29 02:32:14;;;;;;;3.33;2.90;;;;;;;;;;4944630;29;20438;-87
2023/08/29 02:34:41;;;;;;;2.40;2.20;;;;;;;;;;4927239;29;20473;-87
2023/08/29 02:37:07;;;;;;;2.43;2.23;;;;;;;;;;4925405;29;20437;-88
2023/08/29 02:39:33;;;;;;;3.13;2.00;;;;;;;;;;4924341;29;20443;-87
2023/08/29 02:42:08;;;;;;;2.20;2.00;;;;;;;;;;4934511;29;20644;-87
2023/08/29 02:44:34;;;;;;;2.53;2.33;;;;;;;;;;4940452;29;21036;-88
2023/08/29 02:47:00;;;;;;;3.40;1.87;;;;;;;;;;4924370;29;20447;-87
2023/08/29 02:49:26;;;;;;;2.50;2.30;;;;;;;;;;4878919;29;20936;-86
2023/08/29 02:51:52;;;;;;;2.83;2.63;;;;;;;;;;4894134;29;20958;-89
2023/08/29 02:54:18;;;;;;;2.23;2.03;;;;;;;;;;4893657;29;20524;-88
2023/08/29 02:56:51;;;;;;;3.17;2.90;;;;;;;;;;4871493;29;20430;-86
2023/08/29 02:59:17;;;;;;;2.70;2.30;;;;;;;;;;4903419;29;20441;-87
2023/08/29 03:01:43;;;;;;;2.40;2.20;;;;;;;;;;4881586;29;20632;-87
2023/08/29 03:04:09;;;;;;;2.93;2.23;;;;;;;;;;4871017;29;20734;-89
2023/08/29 03:06:35;;;;;;;2.87;2.60;;;;;;;;;;4886927;29;20441;-88
2023/08/29 03:09:01;;;;;;;2.50;2.20;;;;;;;;;;4887365;29;20440;-87
2023/08/29 03:11:41;;;;;;;2.50;1.97;;;;;;;;;;4887125;29;20472;-86
2023/08/29 03:14:07;;;;;;;2.80;2.27;;;;;;;;;;5023496;23;20532;-87
2023/08/29 03:16:33;;;;;;;1.93;1.60;;;;;;;;;;4946816;28;20426;-86
2023/08/29 03:18:59;;;;;;;2.40;1.90;;;;;;;;;;4951540;28;20469;-87
2023/08/29 03:21:26;;;;;;;3.07;2.07;;;;;;;;;;4945092;28;20493;-86
2023/08/29 03:23:52;;;;;;;3.00;1.83;;;;;;;;;;4941886;28;20468;-86
2023/08/29 03:26:18;;;;;;;2.73;2.20;;;;;;;;;;4946116;28;20438;-86
2023/08/29 03:28:45;;;;;;;2.63;2.17;;;;;;;;;;4948789;29;20470;-87
2023/08/29 03:31:15;;;;;;;3.00;2.70;;;;;;;;;;4936553;29;20804;-87
2023/08/29 03:33:41;;;;;;;3.47;3.17;;;;;;;;;;4934953;28;20442;-89
2023/08/29 03:36:07;;;;;;;2.30;2.10;;;;;;;;;;4959535;28;20442;-88
2023/08/29 03:38:37;;;;;;;4.40;2.90;;;;;;;;;;4944794;28;20517;-88
2023/08/29 03:41:07;;;;;;;1.93;1.73;;;;;;;;;;4945363;28;20465;-87
2023/08/29 03:43:34;;;;;;;3.53;2.50;;;;;;;;;;4949773;28;20568;-87
2023/08/29 03:46:00;;;;;;;2.90;2.63;;;;;;;;;;4958860;28;21005;-87
2023/08/29 03:48:26;;;;;;;2.20;2.03;;;;;;;;;;4963409;28;20493;-88
2023/08/29 03:50:52;;;;;;;2.70;2.13;;;;;;;;;;4960434;28;20434;-87
2023/08/29 03:53:18;;;;;;;4.93;2.13;;;;;;;;;;4943301;29;20930;-87
2023/08/29 03:55:44;;;;;;;2.50;2.03;;;;;;;;;;4941195;28;20430;-86
2023/08/29 03:58:10;;;;;;;2.87;2.40;;;;;;;;;;4952153;28;20422;-87
2023/08/29 04:00:36;;;;;;;2.73;2.40;;;;;;;;;;4955937;28;20430;-88
2023/08/29 04:03:06;;;;;;;5.60;2.70;;;;;;;;;;4946292;28;20479;-88
2023/08/29 04:05:31;;;;;;;3.87;2.97;;;;;;;;;;4944206;28;20443;-88
2023/08/29 04:07:57;;;;;;;4.37;2.87;;;;;;;;;;4948754;28;20445;-88
2023/08/29 04:10:23;;;;;;;3.93;3.53;;;;;;;;;;4947570;28;20426;-87
2023/08/29 04:18:01;;;;;;;3.10;2.80;;;;;;;;;;4956026;29;20470;-87
2023/08/29 04:20:28;;;;;;;4.33;3.93;;;;;;;;;;4953950;29;20462;-87
2023/08/29 04:22:54;;;;;;;3.63;3.03;;;;;;;;;;4944841;29;20487;-87
2023/08/29 04:25:20;;;;;;;3.87;2.60;;;;;;;;;;4940866;29;20438;-88
2023/08/29 04:27:48;;;;;;;3.27;2.90;;;;;;;;;;4959825;28;20989;-88
2023/08/29 04:30:14;;;;;;;4.80;3.40;;;;;;;;;;4930971;29;20809;-87
2023/08/29 04:32:46;;;;;;;4.60;3.43;;;;;;;;;;4946893;29;20442;-87
2023/08/29 04:35:14;;;;;;;3.60;3.30;;;;;;;;;;4950763;29;20446;-87
2023/08/29 04:37:41;;;;;;;3.73;3.40;;;;;;;;;;4941394;29;20459;-86
2023/08/29 04:40:07;;;;;;;6.30;3.97;;;;;;;;;;4953650;29;20463;-88
2023/08/29 04:45:23;;;;;;;4.40;3.33;;;;;;;;;;4974891;23;20502;-88
2023/08/29 04:47:51;;;;;;;4.80;3.03;;;;;;;;;;4949855;28;20497;-88
2023/08/29 04:50:18;;;;;;;3.47;3.17;;;;;;;;;;4963354;28;21106;-88
2023/08/29 04:52:45;;;;;;;3.80;3.50;;;;;;;;;;4946535;28;20450;-88
2023/08/29 04:55:11;;;;;;;5.70;4.13;;;;;;;;;;4964241;28;20945;-89
2023/08/29 04:57:37;;;;;;;4.17;3.73;;;;;;;;;;4962080;28;20422;-89
2023/08/29 05:00:04;;;;;;;4.23;3.83;;;;;;;;;;4945351;28;20435;-89
2023/08/29 05:02:40;;;;;;;4.30;3.70;;;;;;;;;;4967033;28;20466;-85
2023/08/29 05:05:06;;;;;;;3.33;2.40;;;;;;;;;;4983394;28;20448;-87
2023/08/29 05:07:32;;;;;;;4.80;3.47;;;;;;;;;;4948918;28;20418;-89
2023/08/29 05:09:59;;;;;;;4.00;3.37;;;;;;;;;;4947675;28;20469;-88
2023/08/29 05:12:25;;;;;;;5.33;4.20;;;;;;;;;;4945242;28;20450;-89
2023/08/29 05:14:53;;;;;;;5.70;4.30;;;;;;;;;;4946405;28;20946;-88
2023/08/29 05:17:50;;;;;;;4.50;2.70;;;;;;;;;;4950415;28;20442;-90
2023/08/29 05:20:17;;;;;;;6.10;5.00;;;;;;;;;;4966162;28;20504;-89
2023/08/29 05:22:43;;;;;;;7.00;5.37;;;;;;;;;;4945075;28;20489;-89
2023/08/29 05:25:09;;;;;;;5.23;4.73;;;;;;;;;;4963294;28;20433;-89
2023/08/29 05:27:35;;;;;;;6.30;5.03;;;;;;;;;;4943828;28;20434;-90
2023/08/29 05:30:02;;;;;;;8.83;6.13;;;;;;;;;;4948293;28;20525;-90
2023/08/29 05:32:29;;;;;;;5.60;4.87;;;;;;;;;;4939080;28;20505;-89
2023/08/29 05:34:55;;;;;;;5.43;3.93;;;;;;;;;;4950668;28;20494;-88
2023/08/29 05:37:21;;;;;;;8.23;4.90;;;;;;;;;;4945267;28;20441;-91
2023/08/29 05:39:47;;;;;;;8.80;6.23;;;;;;;;;;4948362;28;20437;-88
2023/08/29 05:42:13;;;;;;;6.30;5.23;;;;;;;;;;4962631;28;20482;-88
2023/08/29 05:44:39;;;;;;;6.30;5.70;;;;;;;;;;4947669;28;20467;-88
2023/08/29 05:47:05;;;;;;;6.43;5.80;;;;;;;;;;4947357;28;20552;-87
2023/08/29 05:52:06;;;;;;;6.77;5.20;;;;;;;;;;4996223;28;20475;-88
2023/08/29 05:54:36;;;;;;;9.43;5.90;;;;;;;;;;4967335;28;20477;-88
2023/08/29 05:57:03;;;;;;;7.00;4.40;;;;;;;;;;4971772;28;20425;-88
2023/08/29 05:59:29;;;;;;;4.87;3.63;;;;;;;;;;4980219;28;20991;-89
2023/08/29 06:01:55;;;;;;;6.90;5.00;;;;;;;;;;4972811;28;20456;-89
2023/08/29 06:04:21;;;;;;;7.17;4.10;;;;;;;;;;4964293;28;20425;-88
2023/08/29 06:06:51;;;;;;;5.87;5.27;;;;;;;;;;4964510;28;20449;-88
2023/08/29 06:09:17;;;;;;;4.00;3.70;;;;;;;;;;4963828;28;20421;-89
2023/08/29 06:11:44;;;;;;;4.80;3.77;;;;;;;;;;4969228;28;20429;-86
2023/08/29 06:14:10;;;;;;;9.63;4.93;;;;;;;;;;4965969;28;20436;-89
2023/08/29 06:16:36;;;;;;;5.13;4.30;;;;;;;;;;4980768;28;20422;-88
2023/08/29 06:19:02;;;;;;;8.20;4.13;;;;;;;;;;4960857;28;20449;-88
2023/08/29 06:21:28;;;;;;;5.10;4.07;;;;;;;;;;4971083;28;20461;-88
2023/08/29 06:23:54;;;;;;;5.83;4.43;;;;;;;;;;4965002;28;20440;-88
2023/08/29 06:26:20;;;;;;;5.77;3.60;;;;;;;;;;4960831;28;20449;-89
2023/08/29 06:28:45;;;;;;;5.47;4.20;;;;;;;;;;4964331;28;20532;-89
2023/08/29 06:31:12;;;;;;;5.07;4.00;;;;;;;;;;4983291;28;20413;-91
2023/08/29 06:33:38;;;;;;;6.47;4.60;;;;;;;;;;4981158;28;20414;-90
2023/08/29 06:36:04;;;;;;;5.57;3.70;;;;;;;;;;4978274;28;20445;-89
2023/08/29 06:38:31;;;;;;;6.17;5.03;;;;;;;;;;4968054;28;20434;-87
2023/08/29 06:40:57;;;;;;;4.43;3.77;;;;;;;;;;4985478;28;20780;-89
2023/08/29 06:43:23;;;;;;;4.47;4.00;;;;;;;;;;4963152;28;20469;-89
2023/08/29 06:45:49;;;;;;;6.77;4.20;;;;;;;;;;4973427;28;20421;-89
2023/08/29 06:48:15;;;;;;;7.67;5.03;;;;;;;;;;4964535;28;20442;-89
2023/08/29 06:50:43;;;;;;;5.50;4.07;;;;;;;;;;4976651;28;20425;-88
2023/08/29 06:53:15;;;;;;;5.97;4.60;;;;;;;;;;4973643;28;20479;-88
2023/08/29 06:55:41;;;;;;;7.13;4.80;;;;;;;;;;4981454;28;20457;-90
2023/08/29 06:58:07;;;;;;;5.43;4.87;;;;;;;;;;4962202;28;20454;-88
2023/08/29 07:00:34;;;;;;;4.63;4.13;;;;;;;;;;4985088;28;20440;-88
2023/08/29 07:03:00;;;;;;;5.70;4.10;;;;;;;;;;4965613;28;20448;-88
2023/08/29 07:05:26;;;;;;;7.77;4.83;;;;;;;;;;4974914;28;20421;-88
2023/08/29 07:07:52;;;;;;;4.87;4.10;;;;;;;;;;4960924;28;20438;-89
2023/08/29 07:10:18;;;;;;;4.70;4.17;;;;;;;;;;5000182;28;20485;-89
2023/08/29 07:12:44;;;;;;;7.70;5.90;;;;;;;;;;4980963;28;20534;-89
2023/08/29 07:15:10;;;;;;;6.53;4.80;;;;;;;;;;4952271;28;20446;-88
2023/08/29 07:17:36;;;;;;;5.27;4.40;;;;;;;;;;4973845;28;20450;-88
2023/08/29 07:20:11;;;;;;;4.70;4.27;;;;;;;;;;4966739;28;20429;-88
2023/08/29 07:22:42;;;;;;;5.70;4.50;;;;;;;;;;4968279;28;20480;-88
2023/08/29 07:25:09;;;;;;;5.97;4.60;;;;;;;;;;4962994;28;20492;-89
2023/08/29 07:27:35;;;;;;;4.57;3.17;;;;;;;;;;4965351;28;20432;-89
2023/08/29 07:30:01;;;;;;;7.90;4.87;;;;;;;;;;4962817;28;20445;-89
2023/08/29 07:32:28;;;;;;;5.30;4.80;;;;;;;;;;4961781;28;20433;-88
2023/08/29 07:34:55;;;;;;;6.30;4.93;;;;;;;;;;4998944;28;20448;-89
2023/08/29 07:37:21;;;;;;;5.90;5.07;;;;;;;;;;4957637;28;20548;-88
2023/08/29 07:39:47;;;;;;;4.40;4.00;;;;;;;;;;4980939;28;20429;-89
2023/08/29 07:42:13;;;;;;;5.43;4.30;;;;;;;;;;4965326;28;20442;-89
2023/08/29 07:44:39;;;;;;;4.50;4.10;;;;;;;;;;4986378;28;20472;-88
2023/08/29 07:47:05;;;;;;;4.90;4.20;;;;;;;;;;4984630;28;20431;-89
2023/08/29 07:49:33;;;;;;;7.43;4.53;;;;;;;;;;4967383;28;20442;-89
2023/08/29 07:51:59;;;;;;;5.27;4.53;;;;;;;;;;4986536;28;20827;-88
2023/08/29 07:54:28;;;;;;;4.40;3.97;;;;;;;;;;4972878;28;20452;-89
2023/08/29 07:56:54;;;;;;;7.10;5.17;;;;;;;;;;4947323;28;20451;-89
2023/08/29 07:59:20;;;;;;;4.77;4.33;;;;;;;;;;4992521;28;20480;-89
2023/08/29 08:01:48;;;;;;;5.07;3.93;;;;;;;;;;4965239;28;20425;-89
2023/08/29 08:04:14;;;;;;;5.33;4.57;;;;;;;;;;4964018;28;20464;-88
2023/08/29 08:06:41;;;;;;;5.00;4.33;;;;;;;;;;4963215;28;20463;-89
2023/08/29 08:09:08;;;;;;;4.30;3.90;;;;;;;;;;4942796;29;20434;-89
2023/08/29 08:11:34;;;;;;;7.00;5.47;;;;;;;;;;4961305;28;20427;-90
2023/08/29 08:14:04;;;;;;;6.17;4.83;;;;;;;;;;4953660;29;20503;-89
2023/08/29 08:16:30;;;;;;;5.20;4.67;;;;;;;;;;4935017;28;20447;-88
2023/08/29 08:18:56;;;;;;;8.67;4.97;;;;;;;;;;4951071;28;20439;-88
2023/08/29 08:21:22;;;;;;;5.70;4.87;;;;;;;;;;4925803;29;20443;-88
2023/08/29 08:23:48;;;;;;;7.57;5.93;;;;;;;;;;4894826;29;20548;-88
2023/08/29 08:26:14;;;;;;;4.13;3.73;;;;;;;;;;4913246;29;20484;-90
2023/08/29 08:28:41;;;;;;;6.70;5.93;;;;;;;;;;4915912;29;20432;-88
2023/08/29 08:31:07;;;;;;;5.80;3.63;;;;;;;;;;4910342;29;20447;-89
2023/08/29 08:33:33;;;;;;;7.37;5.23;;;;;;;;;;4909061;29;20544;-89
2023/08/29 08:35:59;;;;;;;7.47;6.30;;;;;;;;;;4928653;29;20452;-88
2023/08/29 08:38:28;;;;;;;9.20;6.57;;;;;;;;;;4961827;28;20446;-87
2023/08/29 08:40:57;;;;;;;6.43;5.83;;;;;;;;;;4920436;29;20510;-87
2023/08/29 08:43:23;;;;;;;8.70;6.40;;;;;;;;;;4923057;29;20479;-88
2023/08/29 09:16:58;;;;;;;7.20;4.63;;;;;;;;;;4973419;28;20465;-91
2023/08/29 09:19:24;;;;;;;6.00;5.40;;;;;;;;;;4946002;28;20407;-88
2023/08/29 09:21:50;;;;;;;7.30;6.47;;;;;;;;;;4956807;28;20948;-88
2023/08/29 09:24:23;;;;;;;6.30;5.27;;;;;;;;;;4950192;28;20470;-88
2023/08/29 09:26:49;;;;;;;7.07;4.63;;;;;;;;;;4967728;28;20470;-88
2023/08/29 09:29:17;;;;;;;8.97;6.07;;;;;;;;;;4975771;28;20419;-87
2023/08/29 09:31:43;;;;;;;7.07;5.20;;;;;;;;;;4949742;28;20994;-89
2023/08/29 09:34:09;;;;;;;5.90;4.80;;;;;;;;;;4943413;28;20477;-89
2023/08/29 09:36:35;;;;;;;8.93;6.37;;;;;;;;;;4946948;28;20441;-89
2023/08/29 09:39:02;;;;;;;7.87;5.83;;;;;;;;;;4943233;29;20433;-89
2023/08/29 09:41:28;;;;;;;10.07;5.80;;;;;;;;;;4944236;28;20441;-88
2023/08/29 09:43:54;;;;;;;5.73;5.20;;;;;;;;;;4948252;28;20461;-87
2023/08/29 09:46:21;;;;;;;7.43;6.70;;;;;;;;;;4949161;29;20426;-88
2023/08/29 09:48:56;;;;;;;5.93;5.30;;;;;;;;;;4936442;28;20793;-88
2023/08/29 09:51:25;;;;;;;7.97;5.33;;;;;;;;;;4962322;28;20544;-89
2023/08/29 09:53:51;;;;;;;6.10;5.47;;;;;;;;;;4949256;28;20502;-89
2023/08/29 09:56:17;;;;;;;5.90;5.33;;;;;;;;;;4950455;28;20979;-87
2023/08/29 09:58:43;;;;;;;12.60;6.83;;;;;;;;;;4957137;28;20430;-88
2023/08/29 10:01:09;;;;;;;5.57;4.87;;;;;;;;;;4943938;28;20434;-88
2023/08/29 10:03:35;;;;;;;7.20;6.57;;;;;;;;;;4943607;28;20508;-89
2023/08/29 10:06:02;;;;;;;9.30;7.47;;;;;;;;;;4944466;28;20441;-88
2023/08/29 10:08:41;;;;;;;7.60;6.57;;;;;;;;;;4955343;28;20414;-89
2023/08/29 10:11:07;;;;;;;10.03;6.53;;;;;;;;;;4945118;28;20461;-87
2023/08/29 10:13:34;;;;;;;7.70;6.90;;;;;;;;;;4937718;29;20434;-89
2023/08/29 10:16:00;;;;;;;6.40;5.30;;;;;;;;;;4944042;28;20456;-87
2023/08/29 10:18:26;;;;;;;8.03;5.47;;;;;;;;;;4942059;28;21015;-89
2023/08/29 10:20:55;;;;;;;6.10;5.40;;;;;;;;;;4944811;28;20453;-87
2023/08/29 10:23:22;;;;;;;7.73;5.43;;;;;;;;;;4926660;29;20883;-87
2023/08/29 10:28:31;;;;;;;7.97;5.37;;;;;;;;;;5098551;23;20576;-88
2023/08/29 10:31:18;;;;;;;5.13;4.63;;;;;;;;;;4946088;29;20494;-86
2023/08/29 10:33:44;;;;;;;5.37;4.87;;;;;;;;;;4959297;28;20525;-86
2023/08/29 10:36:10;;;;;;;6.27;4.73;;;;;;;;;;4945382;28;20500;-87
2023/08/29 10:38:40;;;;;;;5.50;5.00;;;;;;;;;;4948945;28;20528;-86
2023/08/29 10:41:06;;;;;;;7.40;5.00;;;;;;;;;;4936113;29;20442;-86
2023/08/29 10:43:33;;;;;;;8.00;5.13;;;;;;;;;;4940741;28;20692;-87
2023/08/29 10:46:01;;;;;;;4.97;4.47;;;;;;;;;;4953598;28;20411;-87
2023/08/29 10:48:48;;;;;;;6.00;4.83;;;;;;;;;;4947446;28;20443;-87
2023/08/29 10:51:14;;;;;;;6.77;5.40;;;;;;;;;;4961491;28;20418;-88
2023/08/29 10:53:45;;;;;;;9.87;5.13;;;;;;;;;;4954703;28;21000;-87
2023/08/29 10:56:12;;;;;;;7.77;5.43;;;;;;;;;;4944432;28;20488;-87
2023/08/29 10:58:42;;;;;;;11.00;5.20;;;;;;;;;;4967727;28;20540;-88
2023/08/29 11:01:27;;;;;;;5.77;4.60;;;;;;;;;;4940353;28;20513;-88
2023/08/29 11:03:54;;;;;;;8.23;6.53;;;;;;;;;;4962260;28;20458;-88
2023/08/29 11:06:21;;;;;;;7.43;5.73;;;;;;;;;;4943182;29;20462;-89
2023/08/29 11:08:47;;;;;;;7.13;5.87;;;;;;;;;;4933962;28;20429;-87
2023/08/29 11:11:20;;;;;;;6.90;5.53;;;;;;;;;;4963767;28;20526;-88
2023/08/29 11:13:59;;;;;;;9.07;6.00;;;;;;;;;;4942209;28;20431;-88
2023/08/29 11:16:28;;;;;;;8.17;5.83;;;;;;;;;;4962988;28;20509;-88
2023/08/29 11:19:00;;;;;;;7.57;6.87;;;;;;;;;;4952605;28;21200;-88
2023/08/29 11:21:26;;;;;;;7.70;6.23;;;;;;;;;;4967016;28;20426;-88
2023/08/29 11:23:52;;;;;;;7.30;5.30;;;;;;;;;;4963410;28;20481;-88
2023/08/29 11:26:18;;;;;;;10.53;9.20;;;;;;;;;;4945965;29;20949;-87
2023/08/29 11:28:45;;;;;;;7.03;6.33;;;;;;;;;;4945426;28;20461;-86
2023/08/29 11:31:12;;;;;;;6.83;5.47;;;;;;;;;;4956160;28;20875;-87
2023/08/29 11:33:38;;;;;;;6.80;6.17;;;;;;;;;;4942568;28;20841;-87
2023/08/29 11:36:05;;;;;;;7.13;6.13;;;;;;;;;;4947594;28;21023;-87
2023/08/29 11:38:31;;;;;;;7.47;5.67;;;;;;;;;;4950672;28;20478;-88
2023/08/29 11:40:57;;;;;;;8.20;7.13;;;;;;;;;;4944796;28;20450;-88
2023/08/29 11:43:24;;;;;;;7.77;6.57;;;;;;;;;;4951029;28;20565;-87
2023/08/29 11:45:55;;;;;;;6.10;5.17;;;;;;;;;;4965030;28;20984;-89
2023/08/29 11:48:25;;;;;;;7.03;5.60;;;;;;;;;;4934555;28;20458;-87
2023/08/29 11:50:52;;;;;;;6.00;5.40;;;;;;;;;;4960175;28;20496;-87
2023/08/29 11:53:24;;;;;;;5.93;5.13;;;;;;;;;;4950844;28;20433;-88
2023/08/29 11:55:51;;;;;;;5.53;4.70;;;;;;;;;;4963198;28;20460;-88
2023/08/29 11:58:17;;;;;;;6.60;5.40;;;;;;;;;;4952172;28;20429;-90
2023/08/29 19:34:21;;;;;;;4.70;4.30;;;;;;;;;;755600;23;20806;-91
2023/08/29 19:36:55;;;;;;;4.60;4.20;;;;;;;;;;4942025;28;20502;-92
2023/08/29 19:39:22;;;;;;;4.33;3.83;;;;;;;;;;4958870;28;20436;-92
2023/08/29 19:41:48;;;;;;;4.63;4.23;;;;;;;;;;4955705;28;20445;-93
2023/08/29 19:44:16;;;;;;;4.27;3.90;;;;;;;;;;4944385;28;20578;-92
2023/08/29 19:46:42;;;;;;;4.67;4.37;;;;;;;;;;4954698;28;20426;-93
2023/08/29 19:49:08;;;;;;;5.70;4.37;;;;;;;;;;4955558;28;20924;-92
2023/08/29 19:51:34;;;;;;;5.90;4.60;;;;;;;;;;4954443;28;20472;-91
2023/08/29 19:54:00;;;;;;;4.60;4.20;;;;;;;;;;4947936;29;20442;-91
2023/08/29 19:56:26;;;;;;;5.30;4.90;;;;;;;;;;4964077;28;20412;-91
2023/08/29 19:58:52;;;;;;;5.23;4.73;;;;;;;;;;4950700;28;20457;-92
2023/08/29 20:01:23;;;;;;;5.20;4.70;;;;;;;;;;4953583;28;20422;-93
2023/08/29 20:03:54;;;;;;;5.17;4.77;;;;;;;;;;4960915;28;20442;-90
